createdAt,value
2018-01-07T00:00:08.639Z,94.41
2018-01-07T00:01:14.599Z,94.64
2018-01-07T00:02:20.856Z,94.47
2018-01-07T00:03:27.086Z,94.65
2018-01-07T00:04:33.299Z,94.37
2018-01-07T00:05:39.758Z,94.83
2018-01-07T00:06:46.003Z,94.93
2018-01-07T00:07:56.095Z,94.92
2018-01-07T00:09:02.063Z,95.14
2018-01-07T00:10:08.312Z,94.64
2018-01-07T00:11:14.508Z,94.86
2018-01-07T00:12:20.715Z,94.93
2018-01-07T00:13:28.866Z,94.94
2018-01-07T00:14:35.109Z,95.32
2018-01-07T00:15:41.352Z,94.99
2018-01-07T00:16:47.613Z,94.67
2018-01-07T00:17:53.823Z,94.59
2018-01-07T00:19:00.058Z,94.35
2018-01-07T00:20:06.311Z,94.44
2018-01-07T00:21:12.596Z,94.43
2018-01-07T00:22:18.847Z,94.35
2018-01-07T00:23:24.783Z,94.77
2018-01-07T00:24:31.002Z,94.67
2018-01-07T00:25:37.207Z,94.38
2018-01-07T00:26:43.496Z,94.10
2018-01-07T00:27:49.678Z,93.98
2018-01-07T00:28:55.840Z,94.47
2018-01-07T00:30:01.690Z,94.89
2018-01-07T00:31:13.347Z,95.11
2018-01-07T00:32:19.521Z,95.04
2018-01-07T00:33:25.774Z,94.84
2018-01-07T00:34:31.997Z,94.60
2018-01-07T00:35:38.180Z,94.38
2018-01-07T00:36:44.415Z,94.26
2018-01-07T00:37:50.638Z,94.24
2018-01-07T00:38:57.693Z,94.16
2018-01-07T00:40:03.473Z,94.24
2018-01-07T00:41:09.684Z,94.44
2018-01-07T00:42:15.665Z,94.72
2018-01-07T00:43:27.556Z,95.10
2018-01-07T00:44:36.768Z,95.12
2018-01-07T00:45:46.623Z,95.82
2018-01-07T00:46:52.803Z,95.87
2018-01-07T00:47:59.001Z,95.95
2018-01-07T00:49:05.177Z,95.60
2018-01-07T00:50:11.390Z,95.46
2018-01-07T00:51:17.609Z,95.28
2018-01-07T00:52:23.760Z,95.34
2018-01-07T00:53:29.927Z,95.22
2018-01-07T00:54:36.140Z,95.57
2018-01-07T00:55:43.439Z,95.74
2018-01-07T00:56:49.564Z,95.81
2018-01-07T00:57:55.837Z,96.08
2018-01-07T00:59:01.990Z,96.03
2018-01-07T01:00:08.156Z,95.91
2018-01-07T01:01:14.059Z,95.96
2018-01-07T01:02:20.224Z,96.70
2018-01-07T01:03:26.461Z,96.56
2018-01-07T01:04:32.720Z,96.28
2018-01-07T01:05:38.847Z,96.40
2018-01-07T01:06:44.821Z,96.66
2018-01-07T01:07:51.002Z,96.34
2018-01-07T01:09:00.314Z,96.71
2018-01-07T01:10:06.573Z,96.68
2018-01-07T01:11:12.786Z,97.23
2018-01-07T01:12:18.587Z,97.50
2018-01-07T01:13:24.785Z,96.99
2018-01-07T01:14:30.995Z,96.56
2018-01-07T01:15:43.232Z,96.77
2018-01-07T01:16:49.412Z,97.01
2018-01-07T01:17:55.569Z,97.08
2018-01-07T01:19:01.763Z,96.95
2018-01-07T01:20:10.701Z,96.90
2018-01-07T01:21:17.039Z,96.60
2018-01-07T01:22:23.249Z,96.88
2018-01-07T01:23:29.415Z,97.15
2018-01-07T01:24:35.611Z,97.33
2018-01-07T01:25:41.800Z,97.27
2018-01-07T01:26:48.006Z,97.19
2018-01-07T01:27:54.202Z,97.53
2018-01-07T01:29:00.351Z,97.55
2018-01-07T01:30:06.515Z,97.71
2018-01-07T01:31:12.776Z,97.70
2018-01-07T01:32:18.976Z,97.51
2018-01-07T01:33:25.174Z,97.06
2018-01-07T01:34:31.363Z,96.92
2018-01-07T01:35:37.506Z,96.86
2018-01-07T01:36:43.855Z,96.80
2018-01-07T01:37:50.228Z,96.87
2018-01-07T01:38:56.417Z,96.89
2018-01-07T01:40:02.639Z,96.63
2018-01-07T01:41:08.520Z,96.67
2018-01-07T01:42:14.734Z,96.38
2018-01-07T01:43:21.083Z,97.17
2018-01-07T01:44:27.245Z,96.94
2018-01-07T01:45:34.290Z,96.85
2018-01-07T01:46:40.219Z,97.04
2018-01-07T01:47:46.384Z,97.02
2018-01-07T01:48:51.917Z,97.17
2018-01-07T01:49:57.877Z,97.41
2018-01-07T01:51:04.060Z,97.67
2018-01-07T01:52:10.199Z,97.84
2018-01-07T01:53:16.400Z,97.63
2018-01-07T01:54:22.545Z,97.51
2018-01-07T01:55:28.717Z,97.14
2018-01-07T01:56:34.838Z,96.96
2018-01-07T01:57:41.077Z,97.15
2018-01-07T01:58:47.254Z,97.18
2018-01-07T01:59:53.443Z,97.43
2018-01-07T02:00:59.649Z,97.04
2018-01-07T02:02:06.654Z,96.99
2018-01-07T02:03:12.912Z,97.01
2018-01-07T02:04:19.096Z,96.80
2018-01-07T02:05:25.267Z,97.22
2018-01-07T02:06:31.162Z,97.22
2018-01-07T02:07:37.365Z,97.31
2018-01-07T02:08:43.536Z,97.46
2018-01-07T02:09:49.516Z,97.56
2018-01-07T02:10:55.744Z,97.31
2018-01-07T02:12:01.953Z,97.34
2018-01-07T02:13:08.127Z,97.44
2018-01-07T02:14:14.295Z,97.58
2018-01-07T02:15:20.454Z,97.40
2018-01-07T02:16:26.661Z,97.47
2018-01-07T02:17:32.798Z,97.64
2018-01-07T02:18:38.941Z,97.55
2018-01-07T02:19:45.151Z,97.55
2018-01-07T02:20:51.424Z,97.72
2018-01-07T02:21:57.633Z,97.88
2018-01-07T02:23:03.773Z,97.47
2018-01-07T02:24:09.973Z,97.50
2018-01-07T02:25:16.130Z,97.33
2018-01-07T02:26:22.291Z,97.77
2018-01-07T02:27:28.512Z,98.03
2018-01-07T02:28:34.707Z,98.22
2018-01-07T02:29:40.897Z,98.48
2018-01-07T02:30:47.047Z,98.58
2018-01-07T02:31:52.985Z,98.08
2018-01-07T02:32:59.246Z,98.34
2018-01-07T02:34:05.476Z,98.76
2018-01-07T02:35:11.731Z,98.48
2018-01-07T02:36:17.876Z,98.53
2018-01-07T02:37:24.086Z,98.64
2018-01-07T02:38:35.128Z,98.61
2018-01-07T02:39:41.424Z,98.75
2018-01-07T02:40:48.472Z,98.20
2018-01-07T02:41:54.669Z,97.83
2018-01-07T02:43:00.897Z,97.73
2018-01-07T02:44:07.136Z,98.06
2018-01-07T02:45:13.316Z,99.12
2018-01-07T02:46:19.554Z,99.21
2018-01-07T02:47:25.761Z,99.23
2018-01-07T02:48:31.936Z,98.97
2018-01-07T02:49:38.134Z,98.53
2018-01-07T02:50:44.260Z,98.22
2018-01-07T02:51:50.459Z,98.68
2018-01-07T02:52:56.607Z,98.63
2018-01-07T02:54:02.795Z,99.01
2018-01-07T02:55:08.969Z,98.65
2018-01-07T02:56:15.177Z,98.72
2018-01-07T02:57:21.398Z,99.13
2018-01-07T02:58:27.629Z,98.68
2018-01-07T02:59:33.773Z,98.71
2018-01-07T03:00:40.073Z,98.54
2018-01-07T03:01:46.011Z,97.93
2018-01-07T03:02:52.163Z,97.97
2018-01-07T03:03:58.349Z,98.18
2018-01-07T03:05:04.268Z,98.64
2018-01-07T03:06:10.456Z,98.47
2018-01-07T03:07:16.411Z,98.08
2018-01-07T03:08:22.630Z,98.17
2018-01-07T03:09:28.519Z,98.19
2018-01-07T03:10:34.709Z,97.96
2018-01-07T03:11:41.830Z,97.54
2018-01-07T03:12:47.947Z,97.11
2018-01-07T03:13:54.104Z,97.58
2018-01-07T03:15:00.215Z,97.39
2018-01-07T03:16:06.400Z,97.02
2018-01-07T03:17:12.602Z,97.03
2018-01-07T03:18:18.813Z,96.68
2018-01-07T03:19:24.943Z,96.88
2018-01-07T03:20:31.167Z,97.10
2018-01-07T03:21:37.382Z,97.15
2018-01-07T03:22:43.533Z,96.76
2018-01-07T03:23:49.703Z,96.58
2018-01-07T03:24:55.855Z,96.08
2018-01-07T03:26:01.707Z,96.35
2018-01-07T03:27:07.874Z,96.88
2018-01-07T03:28:14.086Z,96.69
2018-01-07T03:29:20.284Z,96.52
2018-01-07T03:30:26.443Z,96.21
2018-01-07T03:31:32.576Z,96.33
2018-01-07T03:32:39.935Z,96.72
2018-01-07T03:33:46.711Z,96.47
2018-01-07T03:34:52.874Z,96.69
2018-01-07T03:35:59.046Z,97.36
2018-01-07T03:37:04.853Z,97.02
2018-01-07T03:38:11.201Z,96.19
2018-01-07T03:39:17.524Z,95.75
2018-01-07T03:40:24.593Z,95.70
2018-01-07T03:41:30.769Z,96.12
2018-01-07T03:42:36.962Z,96.22
2018-01-07T03:43:43.139Z,96.46
2018-01-07T03:44:49.241Z,96.55
2018-01-07T03:45:55.457Z,96.63
2018-01-07T03:47:01.639Z,96.58
2018-01-07T03:48:07.746Z,96.91
2018-01-07T03:49:13.950Z,97.50
2018-01-07T03:50:20.087Z,96.98
2018-01-07T03:51:26.358Z,96.74
2018-01-07T03:52:32.557Z,97.01
2018-01-07T03:53:38.688Z,96.41
2018-01-07T03:54:44.825Z,96.33
2018-01-07T03:55:50.960Z,95.88
2018-01-07T03:56:57.177Z,95.70
2018-01-07T03:58:03.295Z,95.55
2018-01-07T03:59:09.521Z,95.63
2018-01-07T04:00:15.740Z,95.68
2018-01-07T04:01:21.908Z,95.89
2018-01-07T04:02:28.012Z,96.04
2018-01-07T04:03:34.213Z,96.01
2018-01-07T04:04:40.411Z,96.26
2018-01-07T04:05:46.548Z,96.51
2018-01-07T04:06:52.425Z,96.75
2018-01-07T04:07:58.543Z,96.53
2018-01-07T04:09:04.051Z,96.41
2018-01-07T04:10:11.084Z,96.65
2018-01-07T04:11:17.334Z,96.78
2018-01-07T04:12:23.763Z,96.61
2018-01-07T04:13:29.921Z,96.63
2018-01-07T04:14:36.074Z,96.99
2018-01-07T04:15:42.280Z,97.21
2018-01-07T04:16:48.449Z,96.47
2018-01-07T04:17:57.185Z,96.98
2018-01-07T04:19:03.370Z,96.41
2018-01-07T04:20:09.528Z,97.01
2018-01-07T04:21:15.783Z,96.96
2018-01-07T04:22:21.969Z,96.43
2018-01-07T04:23:28.119Z,96.09
2018-01-07T04:24:34.255Z,96.75
2018-01-07T04:25:40.372Z,97.19
2018-01-07T04:26:46.536Z,97.21
2018-01-07T04:27:52.719Z,97.28
2018-01-07T04:29:02.266Z,97.84
2018-01-07T04:30:08.382Z,97.70
2018-01-07T04:31:15.432Z,97.76
2018-01-07T04:32:21.592Z,97.59
2018-01-07T04:33:27.724Z,97.23
2018-01-07T04:34:33.932Z,97.21
2018-01-07T04:35:40.087Z,97.20
2018-01-07T04:36:46.264Z,96.83
2018-01-07T04:37:52.445Z,96.98
2018-01-07T04:38:58.693Z,97.17
2018-01-07T04:40:11.876Z,97.20
2018-01-07T04:41:18.097Z,97.30
2018-01-07T04:42:25.489Z,97.94
2018-01-07T04:43:31.644Z,97.96
2018-01-07T04:44:37.955Z,97.60
2018-01-07T04:45:44.215Z,97.58
2018-01-07T04:46:50.450Z,97.44
2018-01-07T04:47:56.664Z,96.85
2018-01-07T04:49:02.795Z,96.81
2018-01-07T04:50:08.921Z,96.60
2018-01-07T04:51:14.780Z,96.91
2018-01-07T04:52:20.919Z,97.02
2018-01-07T04:53:27.071Z,97.56
2018-01-07T04:54:32.707Z,97.61
2018-01-07T04:55:38.819Z,97.89
2018-01-07T04:56:44.953Z,97.45
2018-01-07T04:57:58.242Z,97.30
2018-01-07T04:59:04.464Z,97.39
2018-01-07T05:00:10.655Z,97.07
2018-01-07T05:01:16.802Z,97.01
2018-01-07T05:02:23.156Z,97.45
2018-01-07T05:03:29.351Z,97.67
2018-01-07T05:04:35.510Z,98.20
2018-01-07T05:05:41.688Z,98.28
2018-01-07T05:06:47.866Z,98.34
2018-01-07T05:07:53.991Z,97.97
2018-01-07T05:09:00.180Z,97.95
2018-01-07T05:10:06.355Z,97.85
2018-01-07T05:11:12.571Z,97.68
2018-01-07T05:12:18.780Z,98.03
2018-01-07T05:13:25.290Z,98.14
2018-01-07T05:14:32.084Z,97.77
2018-01-07T05:15:39.405Z,97.52
2018-01-07T05:16:46.623Z,97.29
2018-01-07T05:17:53.927Z,97.44
2018-01-07T05:19:00.412Z,97.21
2018-01-07T05:20:06.754Z,97.01
2018-01-07T05:21:18.782Z,96.79
2018-01-07T05:22:25.833Z,96.91
2018-01-07T05:23:34.803Z,96.99
2018-01-07T05:24:41.901Z,96.87
2018-01-07T05:25:49.394Z,96.89
2018-01-07T05:26:56.076Z,97.17
2018-01-07T05:28:02.244Z,97.17
2018-01-07T05:29:08.385Z,97.51
2018-01-07T05:30:14.758Z,97.63
2018-01-07T05:31:20.921Z,97.96
2018-01-07T05:32:27.060Z,97.88
2018-01-07T05:33:33.197Z,98.33
2018-01-07T05:34:39.393Z,98.20
2018-01-07T05:35:45.780Z,97.86
2018-01-07T05:36:51.976Z,97.73
2018-01-07T05:37:58.164Z,98.13
2018-01-07T05:39:03.473Z,97.84
2018-01-07T05:40:09.638Z,97.66
2018-01-07T05:41:15.845Z,97.37
2018-01-07T05:42:22.916Z,97.51
2018-01-07T05:43:29.107Z,97.70
2018-01-07T05:44:35.238Z,97.73
2018-01-07T05:45:41.541Z,97.85
2018-01-07T05:46:51.168Z,97.43
2018-01-07T05:47:57.352Z,97.26
2018-01-07T05:49:03.516Z,97.53
2018-01-07T05:50:09.690Z,98.00
2018-01-07T05:51:15.530Z,97.28
2018-01-07T05:52:21.722Z,97.23
2018-01-07T05:53:27.883Z,97.34
2018-01-07T05:54:34.099Z,97.46
2018-01-07T05:55:40.204Z,97.07
2018-01-07T05:56:50.262Z,97.37
2018-01-07T05:57:57.450Z,97.55
2018-01-07T05:59:04.139Z,97.56
2018-01-07T06:00:10.336Z,97.45
2018-01-07T06:01:16.498Z,97.90
2018-01-07T06:02:22.634Z,97.85
2018-01-07T06:03:28.759Z,97.70
2018-01-07T06:04:35.010Z,97.85
2018-01-07T06:05:41.195Z,97.71
2018-01-07T06:06:47.340Z,97.65
2018-01-07T06:07:57.395Z,97.64
2018-01-07T06:09:04.890Z,97.45
2018-01-07T06:10:13.993Z,97.51
2018-01-07T06:11:20.672Z,97.49
2018-01-07T06:12:27.418Z,97.53
2018-01-07T06:13:34.927Z,97.85
2018-01-07T06:14:41.699Z,98.01
2018-01-07T06:15:48.151Z,97.76
2018-01-07T06:16:54.691Z,97.70
2018-01-07T06:18:00.779Z,97.95
2018-01-07T06:19:09.151Z,97.76
2018-01-07T06:20:16.534Z,97.27
2018-01-07T06:21:23.187Z,97.19
2018-01-07T06:22:29.810Z,97.06
2018-01-07T06:23:36.029Z,97.20
2018-01-07T06:24:42.287Z,97.68
2018-01-07T06:25:49.424Z,97.54
2018-01-07T06:26:57.592Z,97.27
2018-01-07T06:28:04.904Z,97.03
2018-01-07T06:29:11.889Z,97.01
2018-01-07T06:30:20.022Z,97.18
2018-01-07T06:31:27.340Z,97.25
2018-01-07T06:32:34.705Z,97.58
2018-01-07T06:33:44.397Z,97.53
2018-01-07T06:34:52.657Z,97.13
2018-01-07T06:36:00.663Z,97.09
2018-01-07T06:37:08.516Z,96.80
2018-01-07T06:38:20.598Z,97.16
2018-01-07T06:39:27.864Z,97.22
2018-01-07T06:40:35.254Z,97.30
2018-01-07T06:41:42.518Z,97.48
2018-01-07T06:42:49.809Z,97.88
2018-01-07T06:43:57.153Z,98.15
2018-01-07T06:45:04.627Z,98.02
2018-01-07T06:46:11.150Z,97.96
2018-01-07T06:47:18.445Z,97.68
2018-01-07T06:48:31.844Z,98.60
2018-01-07T06:49:38.530Z,98.48
2018-01-07T06:50:44.762Z,98.21
2018-01-07T06:51:50.964Z,98.10
2018-01-07T06:52:59.643Z,98.27
2018-01-07T06:54:07.546Z,97.68
2018-01-07T06:55:14.122Z,97.65
2018-01-07T06:56:20.569Z,97.45
2018-01-07T06:57:26.772Z,97.27
2018-01-07T06:58:33.726Z,97.21
2018-01-07T06:59:40.594Z,97.50
2018-01-07T07:00:47.955Z,97.82
2018-01-07T07:01:54.133Z,97.83
2018-01-07T07:04:16.591Z,97.37
2018-01-07T07:05:23.288Z,97.13
2018-01-07T07:06:30.099Z,97.26
2018-01-07T07:07:36.233Z,97.00
2018-01-07T07:08:43.075Z,97.61
2018-01-07T07:09:50.063Z,97.56
2018-01-07T07:10:56.365Z,97.22
2018-01-07T07:12:02.609Z,96.86
2018-01-07T07:13:11.329Z,97.13
2018-01-07T07:14:18.075Z,96.76
2018-01-07T07:15:25.823Z,96.91
2018-01-07T07:16:32.328Z,97.22
2018-01-07T07:17:40.566Z,97.13
2018-01-07T07:18:47.378Z,97.26
2018-01-07T07:19:54.036Z,97.78
2018-01-07T07:21:00.760Z,97.78
2018-01-07T07:22:06.965Z,97.92
2018-01-07T07:23:14.312Z,97.51
2018-01-07T07:24:23.530Z,97.19
2018-01-07T07:25:30.489Z,97.19
2018-01-07T07:26:38.638Z,97.28
2018-01-07T07:27:45.280Z,97.35
2018-01-07T07:28:52.062Z,97.79
2018-01-07T07:30:01.312Z,98.46
2018-01-07T07:31:07.699Z,98.38
2018-01-07T07:32:14.341Z,97.85
2018-01-07T07:33:21.014Z,97.71
2018-01-07T07:34:27.148Z,97.10
2018-01-07T07:35:33.290Z,97.29
2018-01-07T07:36:39.626Z,97.11
2018-01-07T07:37:50.850Z,96.79
2018-01-07T07:38:58.382Z,96.71
2018-01-07T07:40:05.586Z,96.69
2018-01-07T07:41:12.232Z,96.73
2018-01-07T07:42:19.119Z,96.80
2018-01-07T07:43:25.324Z,96.92
2018-01-07T07:44:31.549Z,96.85
2018-01-07T07:45:37.877Z,97.50
2018-01-07T07:46:44.235Z,97.42
2018-01-07T07:47:50.451Z,97.60
2018-01-07T07:48:56.484Z,97.83
2018-01-07T07:50:02.988Z,97.58
2018-01-07T07:51:10.782Z,97.30
2018-01-07T07:52:18.490Z,96.81
2018-01-07T07:53:27.888Z,96.54
2018-01-07T07:54:38.650Z,96.29
2018-01-07T07:56:00.762Z,95.92
2018-01-07T07:57:12.021Z,95.59
2018-01-07T07:58:19.486Z,97.18
2018-01-07T07:59:27.127Z,98.17
2018-01-07T08:00:35.032Z,98.06
2018-01-07T08:01:43.458Z,97.86
2018-01-07T08:02:51.806Z,97.73
2018-01-07T08:04:00.549Z,97.31
2018-01-07T08:05:07.748Z,97.44
2018-01-07T08:06:15.942Z,97.27
2018-01-07T08:07:23.439Z,97.20
2018-01-07T08:08:30.027Z,97.19
2018-01-07T08:09:37.022Z,96.91
2018-01-07T08:10:44.830Z,96.55
2018-01-07T08:11:52.358Z,96.36
2018-01-07T08:12:59.230Z,96.43
2018-01-07T08:14:05.982Z,96.81
2018-01-07T08:15:12.903Z,96.08
2018-01-07T08:16:20.793Z,96.19
2018-01-07T08:17:27.623Z,95.93
2018-01-07T08:18:34.781Z,95.60
2018-01-07T08:19:41.826Z,95.00
2018-01-07T08:20:48.355Z,94.89
2018-01-07T08:21:56.555Z,94.45
2018-01-07T08:23:05.132Z,94.74
2018-01-07T08:24:12.632Z,94.48
2018-01-07T08:25:19.631Z,94.67
2018-01-07T08:26:27.021Z,94.69
2018-01-07T08:27:33.376Z,95.02
2018-01-07T08:28:40.882Z,94.94
2018-01-07T08:29:48.352Z,95.23
2018-01-07T08:30:55.214Z,94.68
2018-01-07T08:32:02.343Z,93.99
2018-01-07T08:33:13.107Z,93.74
2018-01-07T08:34:20.689Z,93.66
2018-01-07T08:35:28.229Z,93.72
2018-01-07T08:36:36.755Z,93.81
2018-01-07T08:37:43.739Z,93.47
2018-01-07T08:38:51.226Z,93.68
2018-01-07T08:39:59.071Z,93.48
2018-01-07T08:41:07.763Z,93.19
2018-01-07T08:42:15.493Z,94.03
2018-01-07T08:43:23.338Z,94.32
2018-01-07T08:44:31.616Z,93.84
2018-01-07T08:45:38.667Z,93.66
2018-01-07T08:46:49.455Z,93.96
2018-01-07T08:47:57.145Z,93.67
2018-01-07T08:49:04.937Z,93.87
2018-01-07T08:50:11.989Z,93.80
2018-01-07T08:51:20.553Z,93.73
2018-01-07T08:52:26.948Z,94.16
2018-01-07T08:53:34.921Z,93.92
2018-01-07T08:54:43.581Z,93.86
2018-01-07T08:55:56.659Z,94.02
2018-01-07T08:57:03.602Z,95.07
2018-01-07T08:58:09.957Z,94.66
2018-01-07T08:59:16.693Z,94.19
2018-01-07T09:00:24.140Z,93.29
2018-01-07T09:01:31.255Z,93.02
2018-01-07T09:02:38.574Z,92.73
2018-01-07T09:03:46.158Z,92.95
2018-01-07T09:04:53.470Z,93.17
2018-01-07T09:06:00.678Z,92.98
2018-01-07T09:07:09.020Z,92.89
2018-01-07T09:08:16.418Z,93.27
2018-01-07T09:09:24.405Z,92.58
2018-01-07T09:10:31.885Z,92.81
2018-01-07T09:11:38.996Z,92.88
2018-01-07T09:12:46.248Z,92.85
2018-01-07T09:13:54.906Z,92.09
2018-01-07T09:15:03.175Z,92.14
2018-01-07T09:16:10.962Z,92.18
2018-01-07T09:17:18.618Z,92.34
2018-01-07T09:18:25.560Z,92.48
2018-01-07T09:19:32.277Z,93.50
2018-01-07T09:20:39.809Z,93.73
2018-01-07T09:21:46.781Z,93.73
2018-01-07T09:22:56.277Z,92.78
2018-01-07T09:24:05.716Z,93.00
2018-01-07T09:25:13.226Z,92.98
2018-01-07T09:26:20.308Z,93.94
2018-01-07T09:27:26.666Z,94.58
2018-01-07T09:28:33.470Z,93.66
2018-01-07T09:29:40.899Z,93.58
2018-01-07T09:30:47.424Z,93.17
2018-01-07T09:31:54.035Z,93.42
2018-01-07T09:33:00.724Z,93.09
2018-01-07T09:34:07.544Z,93.21
2018-01-07T09:35:14.192Z,93.40
2018-01-07T09:36:20.380Z,92.39
2018-01-07T09:37:27.404Z,92.19
2018-01-07T09:38:34.948Z,92.55
2018-01-07T09:39:42.492Z,92.40
2018-01-07T09:40:49.772Z,92.45
2018-01-07T09:41:56.996Z,92.35
2018-01-07T09:43:07.355Z,91.86
2018-01-07T09:44:14.666Z,91.87
2018-01-07T09:45:21.048Z,92.41
2018-01-07T09:46:27.793Z,92.34
2018-01-07T09:47:35.078Z,91.95
2018-01-07T09:48:42.986Z,91.91
2018-01-07T09:49:51.189Z,91.42
2018-01-07T09:50:58.572Z,91.87
2018-01-07T09:52:06.534Z,92.39
2018-01-07T09:53:13.744Z,92.04
2018-01-07T09:54:20.811Z,92.47
2018-01-07T09:55:31.559Z,92.96
2018-01-07T09:56:38.798Z,93.24
2018-01-07T09:57:46.220Z,92.73
2018-01-07T09:58:54.647Z,92.73
2018-01-07T10:00:01.625Z,92.37
2018-01-07T10:01:09.492Z,92.13
2018-01-07T10:02:16.852Z,91.83
2018-01-07T10:03:24.394Z,92.16
2018-01-07T10:04:34.966Z,92.25
2018-01-07T10:05:42.445Z,91.75
2018-01-07T10:06:50.394Z,91.69
2018-01-07T10:07:57.788Z,91.96
2018-01-07T10:09:03.637Z,92.20
2018-01-07T10:10:09.974Z,91.73
2018-01-07T10:11:17.824Z,91.51
2018-01-07T10:12:25.504Z,91.55
2018-01-07T10:13:35.027Z,91.29
2018-01-07T10:14:42.481Z,91.37
2018-01-07T10:15:50.468Z,91.53
2018-01-07T10:16:59.234Z,91.11
2018-01-07T10:18:06.676Z,92.07
2018-01-07T10:19:14.440Z,91.81
2018-01-07T10:20:21.522Z,92.40
2018-01-07T10:21:28.295Z,92.63
2018-01-07T10:22:34.636Z,92.17
2018-01-07T10:23:41.657Z,92.37
2018-01-07T10:24:50.203Z,92.26
2018-01-07T10:25:56.896Z,91.89
2018-01-07T10:27:03.985Z,92.08
2018-01-07T10:28:11.610Z,92.28
2018-01-07T10:29:19.217Z,92.61
2018-01-07T10:30:26.162Z,92.56
2018-01-07T10:31:33.615Z,92.02
2018-01-07T10:32:41.595Z,92.07
2018-01-07T10:33:49.850Z,93.11
2018-01-07T10:34:57.538Z,92.61
2018-01-07T10:36:06.774Z,93.03
2018-01-07T10:37:13.945Z,93.23
2018-01-07T10:38:20.655Z,92.63
2018-01-07T10:39:27.346Z,93.09
2018-01-07T10:40:35.758Z,93.14
2018-01-07T10:41:43.810Z,93.14
2018-01-07T10:42:50.858Z,92.67
2018-01-07T10:43:58.165Z,92.06
2018-01-07T10:45:06.360Z,91.92
2018-01-07T10:46:14.726Z,92.62
2018-01-07T10:47:21.993Z,92.57
2018-01-07T10:48:28.256Z,92.91
2018-01-07T10:49:34.426Z,92.73
2018-01-07T10:50:40.631Z,92.20
2018-01-07T10:51:46.839Z,91.50
2018-01-07T10:52:56.098Z,91.43
2018-01-07T10:54:02.699Z,91.38
2018-01-07T10:55:13.413Z,91.86
2018-01-07T10:56:21.996Z,91.87
2018-01-07T10:57:28.714Z,91.63
2018-01-07T10:58:35.594Z,91.83
2018-01-07T10:59:43.393Z,92.00
2018-01-07T11:00:56.045Z,92.10
2018-01-07T11:02:03.413Z,91.03
2018-01-07T11:03:11.006Z,90.86
2018-01-07T11:04:17.852Z,91.37
2018-01-07T11:05:25.727Z,91.64
2018-01-07T11:06:32.737Z,91.86
2018-01-07T11:07:44.287Z,91.09
2018-01-07T11:08:50.764Z,90.96
2018-01-07T11:09:56.976Z,91.12
2018-01-07T11:11:03.802Z,90.88
2018-01-07T11:12:11.417Z,90.80
2018-01-07T11:13:17.573Z,90.79
2018-01-07T11:14:23.731Z,90.59
2018-01-07T11:15:29.912Z,90.99
2018-01-07T11:16:36.109Z,91.10
2018-01-07T11:17:42.977Z,91.39
2018-01-07T11:18:50.019Z,91.73
2018-01-07T11:19:56.981Z,90.78
2018-01-07T11:21:04.272Z,90.59
2018-01-07T11:22:11.058Z,90.73
2018-01-07T11:23:18.065Z,91.07
2018-01-07T11:24:24.868Z,91.17
2018-01-07T11:25:31.879Z,90.80
2018-01-07T11:26:38.200Z,90.27
2018-01-07T11:27:45.015Z,90.99
2018-01-07T11:28:51.767Z,90.99
2018-01-07T11:29:59.399Z,90.79
2018-01-07T11:31:07.833Z,90.68
2018-01-07T11:32:14.954Z,90.33
2018-01-07T11:33:22.741Z,89.82
2018-01-07T11:34:30.378Z,89.94
2018-01-07T11:35:37.205Z,90.40
2018-01-07T11:36:43.677Z,91.08
2018-01-07T11:37:52.336Z,91.19
2018-01-07T11:38:59.721Z,91.04
2018-01-07T11:40:07.088Z,90.73
2018-01-07T11:41:14.063Z,90.57
2018-01-07T11:42:20.287Z,91.22
2018-01-07T11:43:26.202Z,91.39
2018-01-07T11:44:32.482Z,90.81
2018-01-07T11:45:38.734Z,90.52
2018-01-07T11:46:45.055Z,90.61
2018-01-07T11:47:51.251Z,90.77
2018-01-07T11:48:57.465Z,90.76
2018-01-07T11:50:03.742Z,91.11
2018-01-07T11:51:09.932Z,91.46
2018-01-07T11:52:16.201Z,91.48
2018-01-07T11:53:22.394Z,91.67
2018-01-07T11:54:28.629Z,91.27
2018-01-07T11:55:34.844Z,90.21
2018-01-07T11:56:41.044Z,91.03
2018-01-07T11:57:47.232Z,91.08
2018-01-07T11:58:54.344Z,91.10
2018-01-07T12:00:00.600Z,90.17
2018-01-07T12:01:06.857Z,90.01
2018-01-07T12:02:13.346Z,89.69
2018-01-07T12:03:19.800Z,89.06
2018-01-07T12:04:26.897Z,89.41
2018-01-07T12:05:34.374Z,89.53
2018-01-07T12:06:41.731Z,89.62
2018-01-07T12:07:49.052Z,89.30
2018-01-07T12:08:56.262Z,89.61
2018-01-07T12:10:03.275Z,89.82
2018-01-07T12:11:10.323Z,89.81
2018-01-07T12:12:18.639Z,89.36
2018-01-07T12:13:26.624Z,89.33
2018-01-07T12:14:34.156Z,90.05
2018-01-07T12:15:44.288Z,89.95
2018-01-07T12:16:51.596Z,90.34
2018-01-07T12:17:59.039Z,90.53
2018-01-07T12:19:06.432Z,90.23
2018-01-07T12:20:13.565Z,90.06
2018-01-07T12:21:20.612Z,89.50
2018-01-07T12:22:28.722Z,89.05
2018-01-07T12:23:36.099Z,88.94
2018-01-07T12:24:43.700Z,89.29
2018-01-07T12:25:51.185Z,89.10
2018-01-07T12:26:59.407Z,88.60
2018-01-07T12:28:08.685Z,88.71
2018-01-07T12:29:18.022Z,88.65
2018-01-07T12:30:28.217Z,87.99
2018-01-07T12:31:42.946Z,88.16
2018-01-07T12:32:51.989Z,89.18
2018-01-07T12:34:04.457Z,89.23
2018-01-07T12:35:13.183Z,88.45
2018-01-07T12:36:22.641Z,88.80
2018-01-07T12:37:31.756Z,89.32
2018-01-07T12:38:44.056Z,88.95
2018-01-07T12:39:52.476Z,89.03
2018-01-07T12:41:00.996Z,89.77
2018-01-07T12:42:09.221Z,90.01
2018-01-07T12:43:17.331Z,90.05
2018-01-07T12:44:25.752Z,90.34
2018-01-07T12:45:35.253Z,89.82
2018-01-07T12:46:45.815Z,89.54
2018-01-07T12:47:54.901Z,88.93
2018-01-07T12:49:03.848Z,88.98
2018-01-07T12:50:12.143Z,89.15
2018-01-07T12:51:23.453Z,88.95
2018-01-07T12:52:34.936Z,89.27
2018-01-07T12:53:42.729Z,89.45
2018-01-07T12:54:50.318Z,89.40
2018-01-07T12:55:57.226Z,89.88
2018-01-07T12:57:05.341Z,89.77
2018-01-07T12:58:13.497Z,89.51
2018-01-07T12:59:21.109Z,89.67
2018-01-07T13:00:28.563Z,89.48
2018-01-07T13:01:40.700Z,89.29
2018-01-07T13:02:49.452Z,89.47
2018-01-07T13:03:56.805Z,88.84
2018-01-07T13:05:04.278Z,88.84
2018-01-07T13:06:11.801Z,89.08
2018-01-07T13:07:19.218Z,89.18
2018-01-07T13:08:27.100Z,89.04
2018-01-07T13:09:35.643Z,89.42
2018-01-07T13:10:43.198Z,89.40
2018-01-07T13:11:50.653Z,89.30
2018-01-07T13:12:58.248Z,89.08
2018-01-07T13:14:05.651Z,89.91
2018-01-07T13:15:13.125Z,90.11
2018-01-07T13:16:20.291Z,90.25
2018-01-07T13:17:27.773Z,90.18
2018-01-07T13:18:34.945Z,90.20
2018-01-07T13:19:42.817Z,89.70
2018-01-07T13:20:50.631Z,89.69
2018-01-07T13:21:58.445Z,89.19
2018-01-07T13:23:06.044Z,88.76
2018-01-07T13:24:13.576Z,88.64
2018-01-07T13:25:21.530Z,88.83
2018-01-07T13:26:29.184Z,88.66
2018-01-07T13:27:36.846Z,88.58
2018-01-07T13:28:44.526Z,88.18
2018-01-07T13:29:53.071Z,89.20
2018-01-07T13:31:00.645Z,89.13
2018-01-07T13:32:07.981Z,89.23
2018-01-07T13:33:15.177Z,89.42
2018-01-07T13:34:23.044Z,89.31
2018-01-07T13:35:30.331Z,89.58
2018-01-07T13:36:38.658Z,89.43
2018-01-07T13:37:47.307Z,89.60
2018-01-07T13:38:55.986Z,89.62
2018-01-07T13:40:03.803Z,90.27
2018-01-07T13:41:11.453Z,90.67
2018-01-07T13:42:19.084Z,90.55
2018-01-07T13:43:25.783Z,90.25
2018-01-07T13:44:32.089Z,90.27
2018-01-07T13:45:38.357Z,90.07
2018-01-07T13:46:44.561Z,89.54
2018-01-07T13:47:50.760Z,89.83
2018-01-07T13:48:56.943Z,90.20
2018-01-07T13:50:08.156Z,90.38
2018-01-07T13:51:14.440Z,90.77
2018-01-07T13:52:23.652Z,91.15
2018-01-07T13:53:29.902Z,91.23
2018-01-07T13:54:36.199Z,91.28
2018-01-07T13:55:43.808Z,90.65
2018-01-07T13:56:51.972Z,90.16
2018-01-07T13:57:59.372Z,90.58
2018-01-07T13:59:06.542Z,90.63
2018-01-07T14:00:13.658Z,89.99
2018-01-07T14:01:21.661Z,89.94
2018-01-07T14:02:28.901Z,91.01
2018-01-07T14:03:36.448Z,90.94
2018-01-07T14:04:44.631Z,90.24
2018-01-07T14:05:52.043Z,90.10
2018-01-07T14:07:00.488Z,89.97
2018-01-07T14:08:09.017Z,89.85
2018-01-07T14:09:22.079Z,89.81
2018-01-07T14:10:29.151Z,90.13
2018-01-07T14:11:37.446Z,90.33
2018-01-07T14:12:44.655Z,90.02
2018-01-07T14:13:52.696Z,89.81
2018-01-07T14:15:00.836Z,89.74
2018-01-07T14:16:08.862Z,89.98
2018-01-07T14:17:16.241Z,90.32
2018-01-07T14:18:24.570Z,89.97
2018-01-07T14:19:32.308Z,89.72
2018-01-07T14:20:39.939Z,89.87
2018-01-07T14:21:47.410Z,90.04
2018-01-07T14:22:54.910Z,90.74
2018-01-07T14:24:02.485Z,90.83
2018-01-07T14:25:10.211Z,90.28